KQA603 HKMO-HKJK
Flight info
| Callsign | KQA603 |
|---|---|
| Flight time | 0h 44m |
| Altitude | 24000 |
| Route | NERAG1A UTIKU Q315 UTEPI UTEPI1A |
| Aircraft | B738/M-SDE2E3FGHIRWXY/LB1 |
Departure
| Time | 2026-05-07 09:53 |
|---|---|
| Airport | Moi International Airport (HKMO) |
Arrival
| Time | 2026-05-07 10:37 |
|---|---|
| Airport | Jomo Kenyatta International Airport (HKJK) |
| Time | Latitude | Longitude | Altitude | Speed | Heading |
|---|---|---|---|---|---|
| 2026-05-07 09:37 | -4.03209 | 39.60206 | 204 ft | 0 kts | 119° |
| 2026-05-07 09:47 | -4.03205 | 39.60198 | 204 ft | 8 kts | 117° |
| 2026-05-07 09:47 | -4.03193 | 39.60174 | 204 ft | 8 kts | 110° |
| 2026-05-07 09:47 | -4.03186 | 39.60148 | 204 ft | 7 kts | 96° |
| 2026-05-07 09:47 | -4.03187 | 39.60124 | 204 ft | 8 kts | 57° |
| 2026-05-07 09:48 | -4.03194 | 39.60115 | 204 ft | 1 kts | 29° |
| 2026-05-07 09:50 | -4.03170 | 39.60129 | 204 ft | 7 kts | 29° |
| 2026-05-07 09:50 | -4.03120 | 39.60152 | 210 ft | 9 kts | 12° |
| 2026-05-07 09:50 | -4.03063 | 39.60124 | 213 ft | 10 kts | 306° |
| 2026-05-07 09:50 | -4.03022 | 39.60058 | 204 ft | 12 kts | 300° |
| 2026-05-07 09:51 | -4.02979 | 39.59980 | 204 ft | 13 kts | 301° |
| 2026-05-07 09:51 | -4.02893 | 39.59961 | 204 ft | 15 kts | 24° |
| 2026-05-07 09:51 | -4.02801 | 39.60013 | 204 ft | 16 kts | 30° |
| 2026-05-07 09:51 | -4.02704 | 39.60067 | 204 ft | 16 kts | 29° |
| 2026-05-07 09:52 | -4.01336 | 39.60631 | 204 ft | 1 kts | 209° |
| 2026-05-07 09:52 | -4.01468 | 39.60557 | 213 ft | 54 kts | 209° |
| 2026-05-07 09:52 | -4.02000 | 39.60260 | 213 ft | 120 kts | 209° |
| 2026-05-07 09:52 | -4.02876 | 39.59771 | 321 ft | 164 kts | 209° |
| 2026-05-07 09:53 | -4.03944 | 39.59224 | 938 ft | 182 kts | 208° |
| 2026-05-07 09:53 | -4.05082 | 39.58550 | 1632 ft | 200 kts | 226° |
| 2026-05-07 09:53 | -4.05627 | 39.57254 | 2457 ft | 215 kts | 268° |
| 2026-05-07 09:53 | -4.05243 | 39.55757 | 3290 ft | 233 kts | 291° |
| 2026-05-07 09:54 | -4.04540 | 39.54225 | 4066 ft | 251 kts | 292° |
| 2026-05-07 09:54 | -4.03823 | 39.52556 | 4819 ft | 268 kts | 288° |
| 2026-05-07 09:54 | -4.03287 | 39.50713 | 5603 ft | 281 kts | 282° |
| 2026-05-07 09:54 | -4.02870 | 39.48780 | 6546 ft | 286 kts | 280° |
| 2026-05-07 09:55 | -4.02454 | 39.46813 | 7496 ft | 291 kts | 281° |
| 2026-05-07 09:55 | -4.01988 | 39.44826 | 8423 ft | 295 kts | 282° |
| 2026-05-07 09:55 | -4.01479 | 39.42819 | 9311 ft | 299 kts | 283° |
| 2026-05-07 09:55 | -4.00952 | 39.40786 | 10173 ft | 304 kts | 283° |
| 2026-05-07 09:56 | -4.00252 | 39.38718 | 10654 ft | 324 kts | 294° |
| 2026-05-07 09:56 | -3.98991 | 39.36803 | 11290 ft | 335 kts | 310° |
| 2026-05-07 09:56 | -3.97389 | 39.35087 | 12079 ft | 340 kts | 313° |
| 2026-05-07 09:56 | -3.95735 | 39.33381 | 12896 ft | 343 kts | 313° |
| 2026-05-07 09:57 | -3.94047 | 39.31667 | 13685 ft | 347 kts | 314° |
| 2026-05-07 09:57 | -3.92347 | 39.29935 | 14448 ft | 351 kts | 314° |
| 2026-05-07 09:57 | -3.90633 | 39.28171 | 15190 ft | 355 kts | 313° |
| 2026-05-07 09:57 | -3.88909 | 39.26385 | 15915 ft | 359 kts | 313° |
| 2026-05-07 09:58 | -3.87164 | 39.24578 | 16622 ft | 363 kts | 314° |
| 2026-05-07 09:58 | -3.85422 | 39.22780 | 17300 ft | 366 kts | 314° |
| 2026-05-07 09:58 | -3.83612 | 39.20917 | 17983 ft | 370 kts | 314° |
| 2026-05-07 09:58 | -3.81811 | 39.19063 | 18631 ft | 374 kts | 314° |
| 2026-05-07 09:59 | -3.80012 | 39.17209 | 19259 ft | 377 kts | 314° |
| 2026-05-07 09:59 | -3.78178 | 39.15318 | 19888 ft | 380 kts | 314° |
| 2026-05-07 09:59 | -3.76326 | 39.13408 | 20484 ft | 384 kts | 314° |
| 2026-05-07 09:59 | -3.74460 | 39.11485 | 21071 ft | 386 kts | 314° |
| 2026-05-07 10:00 | -3.72578 | 39.09545 | 21661 ft | 389 kts | 314° |
| 2026-05-07 10:00 | -3.70690 | 39.07599 | 22304 ft | 389 kts | 314° |
| 2026-05-07 10:00 | -3.68804 | 39.05657 | 22971 ft | 388 kts | 314° |
| 2026-05-07 10:00 | -3.66923 | 39.03718 | 23636 ft | 387 kts | 314° |
| 2026-05-07 10:01 | -3.65034 | 39.01772 | 23948 ft | 393 kts | 314° |
| 2026-05-07 10:01 | -3.63134 | 38.99815 | 23969 ft | 388 kts | 314° |
| 2026-05-07 10:01 | -3.61268 | 38.97892 | 23972 ft | 383 kts | 314° |
| 2026-05-07 10:01 | -3.59416 | 38.95984 | 23973 ft | 381 kts | 314° |
| 2026-05-07 10:02 | -3.57572 | 38.94084 | 23979 ft | 380 kts | 314° |
| 2026-05-07 10:02 | -3.55730 | 38.92187 | 23982 ft | 380 kts | 314° |
| 2026-05-07 10:02 | -3.53888 | 38.90290 | 23983 ft | 380 kts | 314° |
| 2026-05-07 10:02 | -3.52048 | 38.88396 | 23984 ft | 380 kts | 314° |
| 2026-05-07 10:03 | -3.50205 | 38.86497 | 23985 ft | 380 kts | 314° |
| 2026-05-07 10:03 | -3.48364 | 38.84601 | 23988 ft | 380 kts | 314° |
| 2026-05-07 10:03 | -3.46524 | 38.82701 | 23991 ft | 380 kts | 314° |
| 2026-05-07 10:03 | -3.44711 | 38.80825 | 23993 ft | 380 kts | 314° |
| 2026-05-07 10:04 | -3.42875 | 38.78925 | 23993 ft | 380 kts | 314° |
| 2026-05-07 10:04 | -3.41032 | 38.77021 | 23993 ft | 380 kts | 314° |
| 2026-05-07 10:04 | -3.39196 | 38.75124 | 24005 ft | 379 kts | 314° |
| 2026-05-07 10:04 | -3.37357 | 38.73225 | 24014 ft | 379 kts | 314° |
| 2026-05-07 10:05 | -3.35522 | 38.71331 | 24020 ft | 379 kts | 314° |
| 2026-05-07 10:05 | -3.33687 | 38.69435 | 24026 ft | 379 kts | 314° |
| 2026-05-07 10:05 | -3.31854 | 38.67542 | 24029 ft | 379 kts | 314° |
| 2026-05-07 10:05 | -3.30019 | 38.65646 | 24029 ft | 379 kts | 314° |
| 2026-05-07 10:06 | -3.28186 | 38.63753 | 24028 ft | 379 kts | 314° |
| 2026-05-07 10:06 | -3.26351 | 38.61858 | 24029 ft | 379 kts | 314° |
| 2026-05-07 10:06 | -3.24517 | 38.59964 | 24030 ft | 379 kts | 314° |
| 2026-05-07 10:06 | -3.22683 | 38.58071 | 24031 ft | 379 kts | 314° |
| 2026-05-07 10:07 | -3.20874 | 38.56203 | 24035 ft | 379 kts | 314° |
| 2026-05-07 10:07 | -3.19043 | 38.54312 | 24041 ft | 378 kts | 314° |
| 2026-05-07 10:07 | -3.17211 | 38.52421 | 24046 ft | 379 kts | 314° |
| 2026-05-07 10:07 | -3.15377 | 38.50528 | 24048 ft | 379 kts | 314° |
| 2026-05-07 10:08 | -3.13546 | 38.48638 | 24051 ft | 378 kts | 314° |
| 2026-05-07 10:08 | -3.11709 | 38.46741 | 24056 ft | 378 kts | 314° |
| 2026-05-07 10:08 | -3.09875 | 38.44849 | 24058 ft | 378 kts | 314° |
| 2026-05-07 10:08 | -3.08041 | 38.42955 | 24059 ft | 378 kts | 314° |
| 2026-05-07 10:09 | -3.06212 | 38.41068 | 24066 ft | 378 kts | 314° |
| 2026-05-07 10:09 | -3.04378 | 38.39175 | 24068 ft | 378 kts | 314° |
| 2026-05-07 10:09 | -3.02546 | 38.37285 | 24070 ft | 378 kts | 314° |
| 2026-05-07 10:09 | -3.00715 | 38.35395 | 24077 ft | 378 kts | 314° |
| 2026-05-07 10:10 | -2.98886 | 38.33508 | 24079 ft | 378 kts | 314° |
| 2026-05-07 10:10 | -2.97053 | 38.31617 | 24081 ft | 378 kts | 314° |
| 2026-05-07 10:10 | -2.95214 | 38.29720 | 24080 ft | 385 kts | 314° |
| 2026-05-07 10:10 | -2.93317 | 38.27762 | 24083 ft | 398 kts | 314° |
| 2026-05-07 10:11 | -2.91359 | 38.25743 | 24090 ft | 409 kts | 314° |
| 2026-05-07 10:11 | -2.89354 | 38.23674 | 24090 ft | 419 kts | 314° |
| 2026-05-07 10:11 | -2.87327 | 38.21583 | 24093 ft | 428 kts | 314° |
| 2026-05-07 10:11 | -2.85236 | 38.19426 | 24092 ft | 436 kts | 314° |
| 2026-05-07 10:12 | -2.83108 | 38.17231 | 24101 ft | 442 kts | 314° |
| 2026-05-07 10:12 | -2.80953 | 38.15009 | 24096 ft | 448 kts | 314° |
| 2026-05-07 10:12 | -2.78767 | 38.12754 | 24096 ft | 453 kts | 314° |
| 2026-05-07 10:12 | -2.76582 | 38.10501 | 24100 ft | 448 kts | 314° |
| 2026-05-07 10:13 | -2.74421 | 38.08272 | 24100 ft | 445 kts | 314° |
| 2026-05-07 10:13 | -2.72264 | 38.06048 | 24103 ft | 446 kts | 314° |
| 2026-05-07 10:13 | -2.70108 | 38.03825 | 24104 ft | 445 kts | 314° |
| 2026-05-07 10:13 | -2.67951 | 38.01601 | 24107 ft | 445 kts | 314° |
| 2026-05-07 10:14 | -2.65795 | 37.99379 | 24110 ft | 445 kts | 314° |
| 2026-05-07 10:14 | -2.63638 | 37.97155 | 24113 ft | 446 kts | 314° |
| 2026-05-07 10:14 | -2.61478 | 37.94928 | 24116 ft | 446 kts | 314° |
| 2026-05-07 10:14 | -2.59317 | 37.92700 | 24117 ft | 446 kts | 314° |
| 2026-05-07 10:15 | -2.57158 | 37.90475 | 24115 ft | 446 kts | 314° |
| 2026-05-07 10:15 | -2.54999 | 37.88250 | 24118 ft | 445 kts | 314° |
| 2026-05-07 10:15 | -2.52846 | 37.86031 | 24121 ft | 444 kts | 314° |
| 2026-05-07 10:15 | -2.50690 | 37.83810 | 24125 ft | 445 kts | 314° |
| 2026-05-07 10:16 | -2.48538 | 37.81592 | 24126 ft | 445 kts | 314° |
| 2026-05-07 10:16 | -2.46384 | 37.79371 | 24128 ft | 445 kts | 314° |
| 2026-05-07 10:16 | -2.44231 | 37.77154 | 24130 ft | 445 kts | 314° |
| 2026-05-07 10:16 | -2.42077 | 37.74934 | 24131 ft | 444 kts | 314° |
| 2026-05-07 10:17 | -2.39950 | 37.72742 | 24132 ft | 444 kts | 314° |
| 2026-05-07 10:17 | -2.37796 | 37.70523 | 24134 ft | 445 kts | 314° |
| 2026-05-07 10:17 | -2.35642 | 37.68304 | 24137 ft | 445 kts | 314° |
| 2026-05-07 10:17 | -2.33486 | 37.66083 | 24135 ft | 445 kts | 314° |
| 2026-05-07 10:18 | -2.31331 | 37.63863 | 24141 ft | 444 kts | 314° |
| 2026-05-07 10:18 | -2.29178 | 37.61646 | 24141 ft | 445 kts | 314° |
| 2026-05-07 10:18 | -2.27025 | 37.59428 | 24141 ft | 444 kts | 314° |
| 2026-05-07 10:18 | -2.24872 | 37.57210 | 24143 ft | 445 kts | 314° |
| 2026-05-07 10:19 | -2.22716 | 37.54989 | 24149 ft | 444 kts | 314° |
| 2026-05-07 10:19 | -2.20562 | 37.52771 | 24153 ft | 445 kts | 314° |
| 2026-05-07 10:19 | -2.18408 | 37.50553 | 24153 ft | 445 kts | 314° |
| 2026-05-07 10:19 | -2.16254 | 37.48334 | 24160 ft | 444 kts | 314° |
| 2026-05-07 10:20 | -2.14098 | 37.46114 | 24160 ft | 446 kts | 314° |
| 2026-05-07 10:20 | -2.11935 | 37.43887 | 24163 ft | 446 kts | 314° |
| 2026-05-07 10:20 | -2.09778 | 37.41665 | 24161 ft | 445 kts | 314° |
| 2026-05-07 10:20 | -2.07668 | 37.39458 | 24168 ft | 443 kts | 313° |
| 2026-05-07 10:21 | -2.05568 | 37.37220 | 24172 ft | 441 kts | 313° |
| 2026-05-07 10:21 | -2.03683 | 37.34812 | 24174 ft | 440 kts | 303° |
| 2026-05-07 10:21 | -2.02224 | 37.32123 | 24181 ft | 441 kts | 296° |
| 2026-05-07 10:21 | -2.00901 | 37.29354 | 24180 ft | 440 kts | 295° |
| 2026-05-07 10:22 | -1.99612 | 37.26580 | 24180 ft | 440 kts | 295° |
| 2026-05-07 10:22 | -1.98338 | 37.23796 | 24179 ft | 440 kts | 295° |
| 2026-05-07 10:22 | -1.97062 | 37.21016 | 24184 ft | 439 kts | 295° |
| 2026-05-07 10:22 | -1.95775 | 37.18245 | 24186 ft | 440 kts | 295° |
| 2026-05-07 10:23 | -1.94478 | 37.15472 | 24188 ft | 441 kts | 295° |
| 2026-05-07 10:23 | -1.93180 | 37.12698 | 23930 ft | 441 kts | 295° |
| 2026-05-07 10:23 | -1.91884 | 37.09913 | 23139 ft | 438 kts | 295° |
| 2026-05-07 10:23 | -1.90614 | 37.07177 | 22414 ft | 429 kts | 295° |
| 2026-05-07 10:24 | -1.89789 | 37.05396 | 21946 ft | 424 kts | 295° |
| 2026-05-07 10:24 | -1.88559 | 37.02748 | 21243 ft | 416 kts | 295° |
| 2026-05-07 10:24 | -1.86945 | 36.99281 | 20314 ft | 407 kts | 295° |
| 2026-05-07 10:24 | -1.86159 | 36.97593 | 19859 ft | 402 kts | 295° |
| 2026-05-07 10:25 | -1.84987 | 36.95075 | 19173 ft | 396 kts | 295° |
| 2026-05-07 10:25 | -1.83464 | 36.91799 | 18260 ft | 389 kts | 295° |
| 2026-05-07 10:25 | -1.82698 | 36.90152 | 17814 ft | 385 kts | 295° |
| 2026-05-07 10:25 | -1.81577 | 36.87742 | 17157 ft | 379 kts | 295° |
| 2026-05-07 10:26 | -1.80475 | 36.85373 | 16493 ft | 373 kts | 295° |
| 2026-05-07 10:26 | -1.79375 | 36.83044 | 15836 ft | 368 kts | 298° |
| 2026-05-07 10:26 | -1.77859 | 36.81026 | 15183 ft | 361 kts | 317° |
| 2026-05-07 10:26 | -1.75811 | 36.79636 | 14541 ft | 354 kts | 337° |
| 2026-05-07 10:27 | -1.73477 | 36.79058 | 13893 ft | 348 kts | 357° |
| 2026-05-07 10:27 | -1.71086 | 36.79230 | 13235 ft | 343 kts | 8° |
| 2026-05-07 10:27 | -1.68740 | 36.79585 | 12573 ft | 338 kts | 9° |
| 2026-05-07 10:27 | -1.66477 | 36.79972 | 11939 ft | 334 kts | 10° |
| 2026-05-07 10:28 | -1.64183 | 36.80359 | 11283 ft | 331 kts | 9° |
| 2026-05-07 10:28 | -1.61912 | 36.80715 | 10663 ft | 326 kts | 9° |
| 2026-05-07 10:28 | -1.59735 | 36.81040 | 10518 ft | 306 kts | 9° |
| 2026-05-07 10:28 | -1.57680 | 36.81347 | 10384 ft | 294 kts | 9° |
| 2026-05-07 10:29 | -1.55678 | 36.81652 | 10255 ft | 290 kts | 9° |
| 2026-05-07 10:29 | -1.53683 | 36.81961 | 10121 ft | 290 kts | 9° |
| 2026-05-07 10:29 | -1.51689 | 36.82270 | 9825 ft | 293 kts | 9° |
| 2026-05-07 10:30 | -1.47484 | 36.82919 | 9058 ft | 302 kts | 9° |
| 2026-05-07 10:30 | -1.45446 | 36.83233 | 9037 ft | 288 kts | 9° |
| 2026-05-07 10:30 | -1.43526 | 36.83528 | 9030 ft | 272 kts | 9° |
| 2026-05-07 10:30 | -1.41704 | 36.83806 | 9026 ft | 258 kts | 8° |
| 2026-05-07 10:31 | -1.39962 | 36.84070 | 9026 ft | 250 kts | 9° |
| 2026-05-07 10:31 | -1.38312 | 36.84513 | 9036 ft | 243 kts | 32° |
| 2026-05-07 10:31 | -1.37042 | 36.85652 | 8622 ft | 254 kts | 53° |
| 2026-05-07 10:31 | -1.36003 | 36.87101 | 7961 ft | 254 kts | 57° |
| 2026-05-07 10:32 | -1.35033 | 36.88488 | 7319 ft | 240 kts | 55° |
| 2026-05-07 10:32 | -1.33923 | 36.89614 | 7070 ft | 213 kts | 34° |
| 2026-05-07 10:32 | -1.32638 | 36.90105 | 7040 ft | 184 kts | 8° |
| 2026-05-07 10:32 | -1.31492 | 36.89936 | 6938 ft | 155 kts | 338° |
| 2026-05-07 10:33 | -1.30649 | 36.89286 | 6713 ft | 157 kts | 312° |
| 2026-05-07 10:33 | -1.30088 | 36.88343 | 6538 ft | 160 kts | 293° |
| 2026-05-07 10:33 | -1.29816 | 36.87274 | 6401 ft | 159 kts | 278° |
| 2026-05-07 10:33 | -1.29835 | 36.86157 | 6213 ft | 160 kts | 256° |
| 2026-05-07 10:34 | -1.30384 | 36.85251 | 6149 ft | 152 kts | 218° |
| 2026-05-07 10:34 | -1.31334 | 36.84864 | 6211 ft | 146 kts | 185° |
| 2026-05-07 10:34 | -1.32326 | 36.84984 | 6274 ft | 145 kts | 163° |
| 2026-05-07 10:34 | -1.33272 | 36.85383 | 6256 ft | 149 kts | 153° |
| 2026-05-07 10:35 | -1.34058 | 36.86027 | 6313 ft | 147 kts | 129° |
| 2026-05-07 10:35 | -1.34556 | 36.86931 | 6291 ft | 151 kts | 108° |
| 2026-05-07 10:35 | -1.34649 | 36.87975 | 6249 ft | 156 kts | 86° |
| 2026-05-07 10:35 | -1.34402 | 36.89048 | 6077 ft | 160 kts | 71° |
| 2026-05-07 10:36 | -1.33896 | 36.90030 | 5793 ft | 159 kts | 57° |
| 2026-05-07 10:36 | -1.33273 | 36.90925 | 5534 ft | 152 kts | 55° |
| 2026-05-07 10:36 | -1.32672 | 36.91750 | 5344 ft | 140 kts | 55° |
| 2026-05-07 10:36 | -1.32259 | 36.92324 | 5320 ft | 54 kts | 53° |
| 2026-05-07 10:37 | -1.32071 | 36.92578 | 5315 ft | 41 kts | 54° |
| 2026-05-07 10:37 | -1.31968 | 36.92717 | 5318 ft | 9 kts | 57° |
| 2026-05-07 10:37 | -1.31954 | 36.92779 | 5312 ft | 9 kts | 95° |
| 2026-05-07 10:37 | -1.31993 | 36.92828 | 5311 ft | 10 kts | 144° |
| 2026-05-07 10:38 | -1.32059 | 36.92874 | 5317 ft | 13 kts | 146° |
| 2026-05-07 10:38 | -1.32138 | 36.92930 | 5314 ft | 15 kts | 144° |
| 2026-05-07 10:38 | -1.32227 | 36.92923 | 5314 ft | 15 kts | 232° |
| 2026-05-07 10:38 | -1.32296 | 36.92831 | 5322 ft | 17 kts | 234° |
| 2026-05-07 10:39 | -1.32368 | 36.92729 | 5318 ft | 19 kts | 234° |
| 2026-05-07 10:39 | -1.32450 | 36.92618 | 5320 ft | 21 kts | 232° |
| 2026-05-07 10:39 | -1.32541 | 36.92494 | 5317 ft | 23 kts | 235° |
| 2026-05-07 10:39 | -1.32609 | 36.92400 | 5317 ft | 15 kts | 233° |
| 2026-05-07 10:40 | -1.32687 | 36.92359 | 5324 ft | 15 kts | 165° |
| 2026-05-07 10:40 | -1.32747 | 36.92384 | 5319 ft | 8 kts | 176° |
| 2026-05-07 10:40 | -1.32809 | 36.92391 | 5321 ft | 11 kts | 158° |
| 2026-05-07 10:40 | -1.32860 | 36.92413 | 5315 ft | 6 kts | 156° |
| 2026-05-07 10:41 | -1.32876 | 36.92420 | 5324 ft | 0 kts | 156° |